createdAt,value
2023-03-16T00:02:53.594Z,0.88
2023-03-16T00:07:55.104Z,0.57
2023-03-16T00:12:56.957Z,0.30
2023-03-16T00:17:58.527Z,0.40
2023-03-16T00:23:00.871Z,0.43
2023-03-16T00:28:05.028Z,0.40
2023-03-16T00:33:06.605Z,0.50
2023-03-16T00:38:08.190Z,0.57
2023-03-16T00:43:09.709Z,0.30
2023-03-16T00:48:11.615Z,0.38
2023-03-16T00:53:13.099Z,0.50
2023-03-16T00:58:15.048Z,0.43
2023-03-16T01:03:16.702Z,0.30
2023-03-16T01:08:18.228Z,0.38
2023-03-16T01:13:20.020Z,0.40
2023-03-16T01:18:22.410Z,0.30
2023-03-16T01:23:23.925Z,0.35
2023-03-16T01:28:26.526Z,0.32
2023-03-16T01:33:28.297Z,0.40
2023-03-16T01:38:30.072Z,0.30
2023-03-16T01:43:32.341Z,0.43
2023-03-16T01:48:37.564Z,0.32
2023-03-16T01:53:41.702Z,0.40
2023-03-16T01:58:43.679Z,0.20
2023-03-16T02:03:45.907Z,0.47
2023-03-16T02:08:47.883Z,0.40
2023-03-16T02:13:49.831Z,0.38
2023-03-16T02:18:52.142Z,0.20
2023-03-16T02:23:53.830Z,0.60
2023-03-16T02:29:13.629Z,0.40
2023-03-16T02:34:16.880Z,0.47
2023-03-16T02:39:18.836Z,0.30
2023-03-16T02:44:25.146Z,0.20
2023-03-16T02:49:38.033Z,0.30
2023-03-16T02:54:39.623Z,0.17
2023-03-16T02:59:41.644Z,0.30
2023-03-16T03:04:46.209Z,0.20
2023-03-16T03:09:47.692Z,0.40
2023-03-16T03:14:49.365Z,0.25
2023-03-16T03:19:50.833Z,0.30
2023-03-16T03:24:52.849Z,0.30
2023-03-16T03:29:54.335Z,0.32
2023-03-16T03:34:55.891Z,0.55
2023-03-16T03:39:57.369Z,0.57
2023-03-16T03:44:58.844Z,0.30
2023-03-16T03:50:00.313Z,0.13
2023-03-16T03:55:01.788Z,0.20
2023-03-16T04:00:07.995Z,0.40
2023-03-16T04:05:09.597Z,0.30
2023-03-16T04:10:11.815Z,0.68
2023-03-16T04:15:13.301Z,0.20
2023-03-16T04:20:19.145Z,0.38
2023-03-16T04:25:20.604Z,0.57
2023-03-16T04:30:23.503Z,0.52
2023-03-16T04:35:25.013Z,0.47
2023-03-16T04:40:26.848Z,0.40
2023-03-16T04:45:28.596Z,0.98
2023-03-16T04:50:30.265Z,0.40
2023-03-16T04:55:31.931Z,0.32
2023-03-16T05:00:33.622Z,0.30
2023-03-16T05:05:35.160Z,0.43
2023-03-16T05:10:36.789Z,0.47
2023-03-16T05:15:38.357Z,0.70
2023-03-16T05:20:39.878Z,0.40
2023-03-16T05:25:41.351Z,0.35
2023-03-16T05:30:45.159Z,0.50
2023-03-16T05:35:46.769Z,0.60
2023-03-16T05:40:53.134Z,0.50
2023-03-16T05:45:54.923Z,0.47
2023-03-16T05:50:56.442Z,0.50
2023-03-16T05:55:57.932Z,0.40
2023-03-16T06:01:01.871Z,0.40
2023-03-16T06:06:03.490Z,0.40
2023-03-16T06:11:05.033Z,0.30
2023-03-16T06:16:07.047Z,0.50
2023-03-16T06:21:08.637Z,0.43
2023-03-16T06:26:10.236Z,1.00
2023-03-16T06:31:11.717Z,0.22
2023-03-16T06:36:13.676Z,0.55
2023-03-16T06:41:15.343Z,0.52
2023-03-16T06:46:16.933Z,0.50
2023-03-16T06:51:18.455Z,0.60
2023-03-16T06:56:19.942Z,0.32
2023-03-16T07:01:22.874Z,0.85
2023-03-16T07:06:24.450Z,0.90
2023-03-16T07:11:25.976Z,0.63
2023-03-16T07:16:28.005Z,0.60
2023-03-16T07:21:29.492Z,0.68
2023-03-16T07:26:32.771Z,0.85
2023-03-16T07:31:34.722Z,0.57
2023-03-16T07:36:36.267Z,1.10
2023-03-16T07:41:37.734Z,0.40
2023-03-16T07:46:39.223Z,0.70
2023-03-16T07:51:41.086Z,0.70
2023-03-16T07:56:49.224Z,1.30
2023-03-16T08:01:51.014Z,0.75
2023-03-16T08:06:53.994Z,0.47
2023-03-16T08:11:55.484Z,0.50
2023-03-16T08:16:56.955Z,1.15
2023-03-16T08:22:02.075Z,0.55
2023-03-16T08:27:03.853Z,0.90
2023-03-16T08:32:05.525Z,0.45
2023-03-16T08:37:07.142Z,0.65
2023-03-16T08:42:08.697Z,0.80
2023-03-16T08:47:10.896Z,0.65
2023-03-16T08:52:13.021Z,0.82
2023-03-16T08:57:14.699Z,0.55
2023-03-16T09:02:16.375Z,0.77
2023-03-16T09:07:18.789Z,0.98
2023-03-16T09:12:20.864Z,1.17
2023-03-16T09:17:22.479Z,0.57
2023-03-16T09:22:24.569Z,0.57
2023-03-16T09:27:26.030Z,0.70
2023-03-16T09:32:28.276Z,0.60
2023-03-16T09:37:44.413Z,0.60
2023-03-16T09:42:55.008Z,1.00
2023-03-16T09:47:57.967Z,0.83
2023-03-16T09:52:59.403Z,0.70
2023-03-16T09:58:04.700Z,0.80
2023-03-16T10:03:25.011Z,0.70
2023-03-16T10:08:32.004Z,0.63
2023-03-16T10:13:45.137Z,1.00
2023-03-16T10:18:48.088Z,1.40
2023-03-16T10:23:49.853Z,0.93
2023-03-16T10:28:53.038Z,0.98
2023-03-16T10:34:02.073Z,1.15
2023-03-16T10:39:08.510Z,1.13
2023-03-16T10:44:11.931Z,0.75
2023-03-16T10:49:27.298Z,1.00
2023-03-16T10:54:33.957Z,1.40
2023-03-16T10:59:37.115Z,0.75
2023-03-16T11:04:38.668Z,1.10
2023-03-16T11:09:40.210Z,0.82
2023-03-16T11:14:49.125Z,0.75
2023-03-16T11:19:57.771Z,0.90
2023-03-16T11:25:09.448Z,0.88
2023-03-16T11:30:23.904Z,1.52
2023-03-16T11:35:41.968Z,0.77
2023-03-16T11:40:48.996Z,0.90
2023-03-16T11:46:02.818Z,0.73
2023-03-16T11:51:06.421Z,0.82
2023-03-16T11:56:27.368Z,0.68
2023-03-16T12:01:30.738Z,1.27
2023-03-16T12:06:47.677Z,1.02
2023-03-16T12:11:50.448Z,0.90
2023-03-16T12:17:02.778Z,1.00
2023-03-16T12:22:21.653Z,1.30
2023-03-16T12:27:31.785Z,1.15
2023-03-16T12:32:41.082Z,1.00
2023-03-16T12:37:48.476Z,1.00
2023-03-16T12:43:08.396Z,0.90
2023-03-16T12:48:29.920Z,1.07
2023-03-16T12:53:53.786Z,1.02
2023-03-16T12:58:56.781Z,1.00
2023-03-16T13:04:03.291Z,1.02
2023-03-16T13:09:06.039Z,1.38
2023-03-16T13:14:09.137Z,0.90
2023-03-16T13:19:17.539Z,1.48
2023-03-16T13:24:18.984Z,0.80
2023-03-16T13:29:30.852Z,0.75
2023-03-16T13:34:36.332Z,0.85
2023-03-16T13:39:37.811Z,0.80
2023-03-16T13:44:41.326Z,0.70
2023-03-16T13:49:47.371Z,1.20
2023-03-16T13:54:49.896Z,1.45
2023-03-16T13:59:59.065Z,0.50
2023-03-16T14:05:09.708Z,0.80
2023-03-16T14:10:15.484Z,0.90
2023-03-16T14:15:18.251Z,0.73
2023-03-16T14:20:21.774Z,0.80
2023-03-16T14:25:25.468Z,0.88
2023-03-16T14:30:28.127Z,0.70
2023-03-16T14:35:43.055Z,0.65
2023-03-16T14:40:52.141Z,0.68
2023-03-16T14:45:54.624Z,1.58
2023-03-16T14:50:57.570Z,1.00
2023-03-16T14:55:59.460Z,0.98
2023-03-16T15:01:01.320Z,0.93
2023-03-16T15:06:02.851Z,0.68
2023-03-16T15:11:06.082Z,0.50
2023-03-16T15:16:09.927Z,0.43
2023-03-16T15:21:12.925Z,0.82
2023-03-16T15:26:15.322Z,0.80
2023-03-16T15:31:17.234Z,0.75
2023-03-16T15:36:20.026Z,0.85
2023-03-16T15:41:21.559Z,0.70
2023-03-16T15:46:23.105Z,1.10
2023-03-16T15:51:29.005Z,0.80
2023-03-16T15:56:36.642Z,0.52
2023-03-16T16:01:47.634Z,0.70
2023-03-16T16:06:51.829Z,0.70
2023-03-16T16:11:53.522Z,0.55
2023-03-16T16:16:55.444Z,0.77
2023-03-16T16:21:57.312Z,1.38
2023-03-16T16:26:58.816Z,0.80
2023-03-16T16:32:00.924Z,0.77
2023-03-16T16:37:02.422Z,0.98
2023-03-16T16:42:04.072Z,1.10
2023-03-16T16:47:16.130Z,0.85
2023-03-16T16:52:18.120Z,1.10
2023-03-16T16:57:20.178Z,1.30
2023-03-16T17:02:32.534Z,1.25
2023-03-16T17:07:34.067Z,0.63
2023-03-16T17:12:35.965Z,0.68
2023-03-16T17:17:37.463Z,1.00
2023-03-16T17:22:39.094Z,1.30
2023-03-16T17:27:40.630Z,1.17
2023-03-16T17:32:42.154Z,1.23
2023-03-16T17:37:44.611Z,2.47
2023-03-16T17:42:46.929Z,1.77
2023-03-16T17:47:50.027Z,1.90
2023-03-16T17:52:52.842Z,1.05
2023-03-16T17:57:55.117Z,2.15
2023-03-16T18:02:58.946Z,1.30
2023-03-16T18:08:01.827Z,1.20
2023-03-16T18:13:06.778Z,1.23
2023-03-16T18:18:11.521Z,1.55
2023-03-16T18:23:20.947Z,1.25
2023-03-16T18:28:23.255Z,1.30
2023-03-16T18:33:30.132Z,1.30
2023-03-16T18:38:36.360Z,1.02
2023-03-16T18:43:38.515Z,1.45
2023-03-16T18:48:40.008Z,1.73
2023-03-16T18:53:42.130Z,1.13
2023-03-16T18:58:43.672Z,0.90
2023-03-16T19:03:45.664Z,1.40
2023-03-16T19:08:47.174Z,0.80
2023-03-16T19:13:48.658Z,1.13
2023-03-16T19:18:50.327Z,1.40
2023-03-16T19:23:57.090Z,0.93
2023-03-16T19:28:58.769Z,1.40
2023-03-16T19:34:00.368Z,1.40
2023-03-16T19:39:01.952Z,0.73
2023-03-16T19:44:08.550Z,0.95
2023-03-16T19:49:15.841Z,1.25
2023-03-16T19:54:27.841Z,1.33
2023-03-16T19:59:31.400Z,1.77
2023-03-16T20:04:33.551Z,1.38
2023-03-16T20:09:35.127Z,1.92
2023-03-16T20:14:37.088Z,1.60
2023-03-16T20:19:39.420Z,1.77
2023-03-16T20:24:42.420Z,1.30
2023-03-16T20:29:45.724Z,1.77
2023-03-16T20:34:47.373Z,1.52
2023-03-16T20:39:49.357Z,1.45
2023-03-16T20:44:50.992Z,1.77
2023-03-16T20:49:52.965Z,1.58
2023-03-16T20:54:54.543Z,1.50
2023-03-16T20:59:56.585Z,2.30
2023-03-16T21:04:59.198Z,1.65
2023-03-16T21:10:00.958Z,2.00
2023-03-16T21:15:03.102Z,1.77
2023-03-16T21:20:13.396Z,1.85
2023-03-16T21:25:19.264Z,2.10
2023-03-16T21:30:20.823Z,1.70
2023-03-16T21:35:25.000Z,1.75
2023-03-16T21:40:27.572Z,1.65
2023-03-16T21:45:30.205Z,1.30
2023-03-16T21:50:33.691Z,1.52
2023-03-16T21:55:35.598Z,1.42
2023-03-16T22:00:37.427Z,1.15
2023-03-16T22:05:39.954Z,1.40
2023-03-16T22:10:42.037Z,1.60
2023-03-16T22:15:43.864Z,1.23
2023-03-16T22:20:45.442Z,1.45
2023-03-16T22:25:46.975Z,1.50
2023-03-16T22:30:48.570Z,1.63
2023-03-16T22:35:50.749Z,1.48
2023-03-16T22:40:52.396Z,1.50
2023-03-16T22:45:56.565Z,1.10
2023-03-16T22:51:03.861Z,1.17
2023-03-16T22:56:05.879Z,0.95
2023-03-16T23:01:17.334Z,0.95
2023-03-16T23:06:21.652Z,1.17
2023-03-16T23:11:28.521Z,0.90
2023-03-16T23:16:33.380Z,0.60
2023-03-16T23:21:34.943Z,0.95
2023-03-16T23:26:36.639Z,0.82
2023-03-16T23:31:38.271Z,0.85
2023-03-16T23:36:39.871Z,1.10
2023-03-16T23:41:45.747Z,1.05
2023-03-16T23:46:47.485Z,0.88
2023-03-16T23:51:49.305Z,0.88
2023-03-16T23:56:50.972Z,1.20
